sensor_id;sensor_type;location;lat;lon;timestamp;pressure;altitude;pressure_sealevel;temperature;humidity
85406;BME280;75817;42.662;23.270;2024-02-15T00:01:04;94894.41;;;3.53;58.44
85406;BME280;75817;42.662;23.270;2024-02-15T00:03:30;94901.38;;;3.54;58.80
85406;BME280;75817;42.662;23.270;2024-02-15T00:05:57;94835.91;;;3.45;58.06
85406;BME280;75817;42.662;23.270;2024-02-15T00:08:22;94796.63;;;2.81;58.91
85406;BME280;75817;42.662;23.270;2024-02-15T00:10:50;94877.25;;;3.91;58.37
85406;BME280;75817;42.662;23.270;2024-02-15T00:13:15;94887.94;;;3.67;58.05
85406;BME280;75817;42.662;23.270;2024-02-15T00:15:41;94870.41;;;3.36;58.43
85406;BME280;75817;42.662;23.270;2024-02-15T00:18:06;94893.41;;;3.58;58.23
85406;BME280;75817;42.662;23.270;2024-02-15T00:20:32;94855.75;;;3.33;58.42
85406;BME280;75817;42.662;23.270;2024-02-15T00:22:59;94878.72;;;3.46;57.95
85406;BME280;75817;42.662;23.270;2024-02-15T00:25:25;94883.44;;;3.35;58.31
85406;BME280;75817;42.662;23.270;2024-02-15T00:27:51;94840.38;;;3.04;58.78
85406;BME280;75817;42.662;23.270;2024-02-15T00:30:16;94900.47;;;3.88;57.91
85406;BME280;75817;42.662;23.270;2024-02-15T00:32:42;94862.78;;;3.17;58.53
85406;BME280;75817;42.662;23.270;2024-02-15T00:35:07;94907.09;;;3.75;58.56
85406;BME280;75817;42.662;23.270;2024-02-15T00:37:34;94862.88;;;3.82;57.70
85406;BME280;75817;42.662;23.270;2024-02-15T00:39:59;94911.56;;;4.07;57.60
85406;BME280;75817;42.662;23.270;2024-02-15T00:42:25;94862.75;;;3.44;58.20
85406;BME280;75817;42.662;23.270;2024-02-15T00:44:51;94904.81;;;3.45;58.46
85406;BME280;75817;42.662;23.270;2024-02-15T00:47:16;94902.69;;;3.62;57.99
85406;BME280;75817;42.662;23.270;2024-02-15T00:49:44;94848.00;;;3.59;58.30
85406;BME280;75817;42.662;23.270;2024-02-15T00:52:10;94914.16;;;3.59;58.08
85406;BME280;75817;42.662;23.270;2024-02-15T00:54:35;94906.28;;;3.46;58.20
85406;BME280;75817;42.662;23.270;2024-02-15T00:57:01;94890.00;;;3.76;57.87
85406;BME280;75817;42.662;23.270;2024-02-15T00:59:26;94913.28;;;4.02;57.73
85406;BME280;75817;42.662;23.270;2024-02-15T01:01:51;94854.47;;;3.44;57.14
85406;BME280;75817;42.662;23.270;2024-02-15T01:04:18;94887.63;;;3.63;57.70
85406;BME280;75817;42.662;23.270;2024-02-15T01:06:44;94914.69;;;3.48;58.17
85406;BME280;75817;42.662;23.270;2024-02-15T01:09:10;94868.72;;;3.23;57.70
85406;BME280;75817;42.662;23.270;2024-02-15T01:11:36;94901.44;;;3.73;58.35
85406;BME280;75817;42.662;23.270;2024-02-15T01:14:02;94909.38;;;3.59;57.90
85406;BME280;75817;42.662;23.270;2024-02-15T01:16:28;94901.94;;;3.89;57.82
85406;BME280;75817;42.662;23.270;2024-02-15T01:18:54;94907.81;;;3.39;58.95
85406;BME280;75817;42.662;23.270;2024-02-15T01:21:20;94849.63;;;3.25;58.12
85406;BME280;75817;42.662;23.270;2024-02-15T01:23:47;94909.13;;;3.74;58.31
85406;BME280;75817;42.662;23.270;2024-02-15T01:26:13;94904.88;;;4.00;57.92
85406;BME280;75817;42.662;23.270;2024-02-15T01:28:39;94896.13;;;3.94;57.33
85406;BME280;75817;42.662;23.270;2024-02-15T01:31:08;94889.56;;;3.80;57.47
85406;BME280;75817;42.662;23.270;2024-02-15T01:33:36;94888.63;;;4.04;57.78
85406;BME280;75817;42.662;23.270;2024-02-15T01:36:02;94844.81;;;3.53;57.70
85406;BME280;75817;42.662;23.270;2024-02-15T01:38:27;94902.50;;;3.87;56.62
85406;BME280;75817;42.662;23.270;2024-02-15T01:40:53;94861.44;;;3.45;57.35
85406;BME280;75817;42.662;23.270;2024-02-15T01:43:18;94877.41;;;3.20;58.71
85406;BME280;75817;42.662;23.270;2024-02-15T01:45:43;94848.47;;;3.28;57.91
85406;BME280;75817;42.662;23.270;2024-02-15T01:48:09;94852.31;;;3.16;57.75
85406;BME280;75817;42.662;23.270;2024-02-15T01:50:35;94861.94;;;3.61;57.54
85406;BME280;75817;42.662;23.270;2024-02-15T01:53:04;94912.59;;;3.39;58.24
85406;BME280;75817;42.662;23.270;2024-02-15T01:55:32;94869.47;;;3.24;58.77
85406;BME280;75817;42.662;23.270;2024-02-15T01:57:58;94839.03;;;2.95;58.39
85406;BME280;75817;42.662;23.270;2024-02-15T02:00:24;94847.75;;;3.01;58.60
85406;BME280;75817;42.662;23.270;2024-02-15T02:02:53;94903.50;;;3.46;58.28
85406;BME280;75817;42.662;23.270;2024-02-15T02:05:19;94865.00;;;3.28;57.51
85406;BME280;75817;42.662;23.270;2024-02-15T02:07:44;94897.22;;;3.72;58.24
85406;BME280;75817;42.662;23.270;2024-02-15T02:10:10;94901.50;;;3.92;57.96
85406;BME280;75817;42.662;23.270;2024-02-15T02:12:40;94864.44;;;3.30;57.81
85406;BME280;75817;42.662;23.270;2024-02-15T02:15:09;94910.28;;;3.71;58.11
85406;BME280;75817;42.662;23.270;2024-02-15T02:17:36;94920.56;;;3.61;57.67
85406;BME280;75817;42.662;23.270;2024-02-15T02:20:02;94810.56;;;3.10;57.93
85406;BME280;75817;42.662;23.270;2024-02-15T02:22:34;94917.03;;;3.97;56.94
85406;BME280;75817;42.662;23.270;2024-02-15T02:25:07;94857.72;;;2.97;58.01
85406;BME280;75817;42.662;23.270;2024-02-15T02:27:36;94916.34;;;3.33;58.61
85406;BME280;75817;42.662;23.270;2024-02-15T02:30:05;94915.47;;;3.58;58.14
85406;BME280;75817;42.662;23.270;2024-02-15T02:32:34;94910.13;;;3.33;58.65
85406;BME280;75817;42.662;23.270;2024-02-15T02:35:01;94858.41;;;3.51;57.62
85406;BME280;75817;42.662;23.270;2024-02-15T02:37:26;94867.91;;;3.30;57.75
85406;BME280;75817;42.662;23.270;2024-02-15T02:39:52;94819.69;;;3.12;57.69
85406;BME280;75817;42.662;23.270;2024-02-15T02:42:17;94875.38;;;3.47;57.70
85406;BME280;75817;42.662;23.270;2024-02-15T02:44:43;94910.16;;;3.69;57.99
85406;BME280;75817;42.662;23.270;2024-02-15T02:47:08;94862.69;;;2.81;58.32
85406;BME280;75817;42.662;23.270;2024-02-15T02:49:37;94928.44;;;3.48;58.04
85406;BME280;75817;42.662;23.270;2024-02-15T02:52:03;94927.06;;;3.93;57.28
85406;BME280;75817;42.662;23.270;2024-02-15T02:54:28;94910.22;;;3.98;57.48
85406;BME280;75817;42.662;23.270;2024-02-15T02:56:54;94922.13;;;3.91;57.07
85406;BME280;75817;42.662;23.270;2024-02-15T02:59:20;94936.31;;;3.88;56.96
85406;BME280;75817;42.662;23.270;2024-02-15T03:01:45;94916.13;;;3.49;57.37
85406;BME280;75817;42.662;23.270;2024-02-15T03:04:11;94873.94;;;3.46;57.37
85406;BME280;75817;42.662;23.270;2024-02-15T03:06:37;94879.03;;;3.23;57.56
85406;BME280;75817;42.662;23.270;2024-02-15T03:09:02;94911.22;;;3.83;57.14
85406;BME280;75817;42.662;23.270;2024-02-15T03:11:32;94902.66;;;3.89;57.21
85406;BME280;75817;42.662;23.270;2024-02-15T03:13:59;94902.78;;;3.81;57.48
85406;BME280;75817;42.662;23.270;2024-02-15T03:16:25;94933.38;;;3.76;57.68
85406;BME280;75817;42.662;23.270;2024-02-15T03:18:51;94827.59;;;2.99;57.91
85406;BME280;75817;42.662;23.270;2024-02-15T03:21:17;94923.09;;;3.76;58.48
85406;BME280;75817;42.662;23.270;2024-02-15T03:23:42;94928.63;;;3.86;57.26
85406;BME280;75817;42.662;23.270;2024-02-15T03:26:08;94875.38;;;3.47;57.25
85406;BME280;75817;42.662;23.270;2024-02-15T03:28:34;94889.84;;;3.38;58.12
85406;BME280;75817;42.662;23.270;2024-02-15T03:31:02;94934.59;;;3.56;58.05
85406;BME280;75817;42.662;23.270;2024-02-15T03:33:27;94913.91;;;3.11;58.96
85406;BME280;75817;42.662;23.270;2024-02-15T03:35:58;94890.34;;;3.00;59.06
85406;BME280;75817;42.662;23.270;2024-02-15T03:38:24;94932.44;;;3.64;58.52
85406;BME280;75817;42.662;23.270;2024-02-15T03:40:50;94941.91;;;3.70;57.67
85406;BME280;75817;42.662;23.270;2024-02-15T03:43:15;94833.66;;;2.97;58.11
85406;BME280;75817;42.662;23.270;2024-02-15T03:45:40;94889.31;;;2.96;58.99
85406;BME280;75817;42.662;23.270;2024-02-15T03:48:07;94879.44;;;2.93;59.34
85406;BME280;75817;42.662;23.270;2024-02-15T03:50:32;94894.34;;;3.16;59.37
85406;BME280;75817;42.662;23.270;2024-02-15T03:52:58;94941.41;;;3.91;58.34
85406;BME280;75817;42.662;23.270;2024-02-15T03:55:25;94898.94;;;3.67;58.04
85406;BME280;75817;42.662;23.270;2024-02-15T03:57:50;94935.47;;;3.58;58.13
85406;BME280;75817;42.662;23.270;2024-02-15T04:00:16;94945.03;;;3.57;58.72
85406;BME280;75817;42.662;23.270;2024-02-15T04:02:46;94890.34;;;3.27;58.86
85406;BME280;75817;42.662;23.270;2024-02-15T04:05:12;94920.84;;;3.39;59.09
85406;BME280;75817;42.662;23.270;2024-02-15T04:07:38;94924.03;;;3.08;58.04
85406;BME280;75817;42.662;23.270;2024-02-15T04:10:05;94946.16;;;3.27;58.67
85406;BME280;75817;42.662;23.270;2024-02-15T04:12:31;94907.19;;;3.31;58.34
85406;BME280;75817;42.662;23.270;2024-02-15T04:14:56;94960.31;;;2.97;59.03
85406;BME280;75817;42.662;23.270;2024-02-15T04:17:29;94892.31;;;2.90;58.95
85406;BME280;75817;42.662;23.270;2024-02-15T04:19:57;94961.31;;;3.63;58.07
85406;BME280;75817;42.662;23.270;2024-02-15T04:22:23;94897.59;;;2.96;58.55
85406;BME280;75817;42.662;23.270;2024-02-15T04:24:48;94898.16;;;2.77;59.16
85406;BME280;75817;42.662;23.270;2024-02-15T04:27:13;94959.59;;;3.41;58.76
85406;BME280;75817;42.662;23.270;2024-02-15T04:29:40;94965.94;;;3.33;58.27
85406;BME280;75817;42.662;23.270;2024-02-15T04:32:08;94950.47;;;3.38;58.47
85406;BME280;75817;42.662;23.270;2024-02-15T04:34:35;94955.25;;;3.38;58.30
85406;BME280;75817;42.662;23.270;2024-02-15T04:37:00;94959.81;;;3.25;59.51
85406;BME280;75817;42.662;23.270;2024-02-15T04:39:26;94959.50;;;3.48;58.14
85406;BME280;75817;42.662;23.270;2024-02-15T04:41:55;94966.38;;;3.13;58.94
85406;BME280;75817;42.662;23.270;2024-02-15T04:44:21;94981.94;;;3.18;58.72
85406;BME280;75817;42.662;23.270;2024-02-15T04:46:47;94941.03;;;3.14;59.16
85406;BME280;75817;42.662;23.270;2024-02-15T04:49:15;94978.72;;;2.95;60.11
85406;BME280;75817;42.662;23.270;2024-02-15T04:51:41;94920.44;;;2.37;60.17
85406;BME280;75817;42.662;23.270;2024-02-15T04:54:07;94951.00;;;2.93;59.99
85406;BME280;75817;42.662;23.270;2024-02-15T04:56:33;94908.22;;;3.09;59.22
85406;BME280;75817;42.662;23.270;2024-02-15T04:58:58;94886.84;;;2.56;58.78
85406;BME280;75817;42.662;23.270;2024-02-15T05:01:24;94977.69;;;3.34;58.94
85406;BME280;75817;42.662;23.270;2024-02-15T05:03:50;94966.50;;;2.71;59.79
85406;BME280;75817;42.662;23.270;2024-02-15T05:06:15;94957.09;;;2.57;60.06
85406;BME280;75817;42.662;23.270;2024-02-15T05:08:41;94983.47;;;2.77;59.89
85406;BME280;75817;42.662;23.270;2024-02-15T05:11:12;94947.06;;;2.69;59.56
85406;BME280;75817;42.662;23.270;2024-02-15T05:13:45;94948.59;;;2.62;59.96
85406;BME280;75817;42.662;23.270;2024-02-15T05:16:11;94987.06;;;2.87;59.71
85406;BME280;75817;42.662;23.270;2024-02-15T05:18:37;94949.63;;;2.50;59.82
85406;BME280;75817;42.662;23.270;2024-02-15T05:21:05;95006.63;;;2.74;60.47
85406;BME280;75817;42.662;23.270;2024-02-15T05:23:35;94991.72;;;2.77;60.14
85406;BME280;75817;42.662;23.270;2024-02-15T05:26:02;94989.66;;;2.68;60.11
85406;BME280;75817;42.662;23.270;2024-02-15T05:28:28;94910.63;;;2.26;60.56
85406;BME280;75817;42.662;23.270;2024-02-15T05:31:13;94905.22;;;2.36;59.40
85406;BME280;75817;42.662;23.270;2024-02-15T05:33:52;95007.38;;;3.09;59.46
85406;BME280;75817;42.662;23.270;2024-02-15T05:36:20;94989.06;;;2.69;60.39
85406;BME280;75817;42.662;23.270;2024-02-15T05:38:47;95010.03;;;2.65;60.64
85406;BME280;75817;42.662;23.270;2024-02-15T05:41:12;95010.13;;;3.09;59.89
85406;BME280;75817;42.662;23.270;2024-02-15T05:43:41;95006.34;;;2.87;60.09
85406;BME280;75817;42.662;23.270;2024-02-15T05:46:08;94946.41;;;2.44;60.36
85406;BME280;75817;42.662;23.270;2024-02-15T05:48:34;95015.22;;;3.29;59.38
85406;BME280;75817;42.662;23.270;2024-02-15T05:51:07;94953.75;;;3.10;58.37
85406;BME280;75817;42.662;23.270;2024-02-15T05:53:33;94984.88;;;2.68;59.24
85406;BME280;75817;42.662;23.270;2024-02-15T05:56:05;95030.22;;;3.02;59.48
85406;BME280;75817;42.662;23.270;2024-02-15T05:58:32;95013.44;;;2.90;58.62
85406;BME280;75817;42.662;23.270;2024-02-15T06:00:58;94992.34;;;2.33;60.07
85406;BME280;75817;42.662;23.270;2024-02-15T06:03:29;94978.38;;;2.73;59.38
85406;BME280;75817;42.662;23.270;2024-02-15T06:05:57;94926.56;;;2.28;59.74
85406;BME280;75817;42.662;23.270;2024-02-15T06:08:24;95034.00;;;2.89;59.74
85406;BME280;75817;42.662;23.270;2024-02-15T06:10:50;94988.66;;;2.90;59.30
85406;BME280;75817;42.662;23.270;2024-02-15T06:13:15;94932.66;;;2.44;59.11
85406;BME280;75817;42.662;23.270;2024-02-15T06:15:41;94962.59;;;2.57;59.63
85406;BME280;75817;42.662;23.270;2024-02-15T06:18:06;95047.28;;;3.00;59.08
85406;BME280;75817;42.662;23.270;2024-02-15T06:20:35;94992.47;;;2.60;59.43
85406;BME280;75817;42.662;23.270;2024-02-15T06:23:00;95026.88;;;2.86;60.15
85406;BME280;75817;42.662;23.270;2024-02-15T06:25:28;95043.81;;;3.00;59.33
85406;BME280;75817;42.662;23.270;2024-02-15T06:27:53;94986.22;;;2.43;59.04
85406;BME280;75817;42.662;23.270;2024-02-15T06:30:26;94947.13;;;2.44;58.11
85406;BME280;75817;42.662;23.270;2024-02-15T06:33:10;95011.81;;;2.28;59.63
85406;BME280;75817;42.662;23.270;2024-02-15T06:36:06;95016.09;;;2.80;59.19
85406;BME280;75817;42.662;23.270;2024-02-15T06:38:50;95018.84;;;2.63;59.15
85406;BME280;75817;42.662;23.270;2024-02-15T06:41:33;95051.53;;;2.59;60.15
85406;BME280;75817;42.662;23.270;2024-02-15T06:43:59;94997.72;;;2.49;60.50
85406;BME280;75817;42.662;23.270;2024-02-15T06:46:24;95010.13;;;2.74;59.50
85406;BME280;75817;42.662;23.270;2024-02-15T06:48:50;95057.72;;;2.67;59.43
85406;BME280;75817;42.662;23.270;2024-02-15T06:51:15;95062.78;;;2.96;59.74
85406;BME280;75817;42.662;23.270;2024-02-15T06:53:41;95018.63;;;3.03;58.74
85406;BME280;75817;42.662;23.270;2024-02-15T06:56:10;95051.59;;;2.94;58.10
85406;BME280;75817;42.662;23.270;2024-02-15T06:58:36;95041.88;;;3.10;58.90
85406;BME280;75817;42.662;23.270;2024-02-15T07:01:01;95007.63;;;2.86;58.60
85406;BME280;75817;42.662;23.270;2024-02-15T07:03:28;95032.63;;;2.80;59.05
85406;BME280;75817;42.662;23.270;2024-02-15T07:05:55;95061.06;;;3.17;58.42
85406;BME280;75817;42.662;23.270;2024-02-15T07:08:21;95055.38;;;3.50;58.09
85406;BME280;75817;42.662;23.270;2024-02-15T07:10:50;95009.31;;;2.64;59.17
85406;BME280;75817;42.662;23.270;2024-02-15T07:13:16;95002.72;;;2.43;58.29
85406;BME280;75817;42.662;23.270;2024-02-15T07:15:42;95031.84;;;2.88;58.60
85406;BME280;75817;42.662;23.270;2024-02-15T07:18:09;95054.59;;;3.22;57.96
85406;BME280;75817;42.662;23.270;2024-02-15T07:20:35;95022.56;;;3.27;58.12
85406;BME280;75817;42.662;23.270;2024-02-15T07:23:01;95008.91;;;2.85;57.76
85406;BME280;75817;42.662;23.270;2024-02-15T07:25:27;95003.41;;;3.02;57.85
85406;BME280;75817;42.662;23.270;2024-02-15T07:27:52;95046.31;;;3.05;58.05
85406;BME280;75817;42.662;23.270;2024-02-15T07:30:19;95053.88;;;3.22;58.31
85406;BME280;75817;42.662;23.270;2024-02-15T07:32:44;94989.63;;;3.02;57.17
85406;BME280;75817;42.662;23.270;2024-02-15T07:35:10;94989.91;;;2.79;57.74
85406;BME280;75817;42.662;23.270;2024-02-15T07:37:35;95030.03;;;3.34;57.39
85406;BME280;75817;42.662;23.270;2024-02-15T07:40:01;94985.97;;;3.00;57.17
85406;BME280;75817;42.662;23.270;2024-02-15T07:42:28;95048.59;;;3.33;57.15
85406;BME280;75817;42.662;23.270;2024-02-15T07:44:54;95041.84;;;3.44;57.00
85406;BME280;75817;42.662;23.270;2024-02-15T07:47:20;94971.84;;;2.86;56.99
85406;BME280;75817;42.662;23.270;2024-02-15T07:49:49;94979.44;;;2.95;56.74
85406;BME280;75817;42.662;23.270;2024-02-15T07:52:15;95038.69;;;3.48;56.90
85406;BME280;75817;42.662;23.270;2024-02-15T07:54:40;95032.97;;;3.63;56.85
85406;BME280;75817;42.662;23.270;2024-02-15T07:57:06;94994.97;;;3.00;57.62
85406;BME280;75817;42.662;23.270;2024-02-15T07:59:31;95044.84;;;3.39;57.00
85406;BME280;75817;42.662;23.270;2024-02-15T08:01:56;94975.97;;;2.77;57.08
85406;BME280;75817;42.662;23.270;2024-02-15T08:04:23;94975.78;;;2.93;57.01
85406;BME280;75817;42.662;23.270;2024-02-15T08:06:50;95039.72;;;3.52;56.82
85406;BME280;75817;42.662;23.270;2024-02-15T08:09:17;94986.06;;;3.26;56.29
85406;BME280;75817;42.662;23.270;2024-02-15T08:11:45;95026.59;;;3.60;56.23
85406;BME280;75817;42.662;23.270;2024-02-15T08:14:10;94991.59;;;3.53;55.96
85406;BME280;75817;42.662;23.270;2024-02-15T08:16:38;95030.63;;;3.86;56.42
85406;BME280;75817;42.662;23.270;2024-02-15T08:19:05;95032.84;;;3.44;57.38
85406;BME280;75817;42.662;23.270;2024-02-15T08:21:32;94991.72;;;3.28;56.75
85406;BME280;75817;42.662;23.270;2024-02-15T08:24:05;95027.94;;;3.69;56.98
85406;BME280;75817;42.662;23.270;2024-02-15T08:26:36;94978.97;;;3.33;57.01
85406;BME280;75817;42.662;23.270;2024-02-15T08:29:03;94971.16;;;3.56;56.26
85406;BME280;75817;42.662;23.270;2024-02-15T08:31:29;95032.06;;;4.14;56.66
85406;BME280;75817;42.662;23.270;2024-02-15T08:33:59;95027.03;;;3.93;56.67
85406;BME280;75817;42.662;23.270;2024-02-15T08:36:25;94962.72;;;3.54;56.19
85406;BME280;75817;42.662;23.270;2024-02-15T08:38:51;95007.28;;;3.87;56.06
85406;BME280;75817;42.662;23.270;2024-02-15T08:41:16;94976.97;;;3.60;56.34
85406;BME280;75817;42.662;23.270;2024-02-15T08:43:46;94976.56;;;3.64;56.10
85406;BME280;75817;42.662;23.270;2024-02-15T08:46:14;95031.50;;;4.15;56.48
85406;BME280;75817;42.662;23.270;2024-02-15T08:48:39;95010.41;;;4.01;56.73
85406;BME280;75817;42.662;23.270;2024-02-15T08:51:06;95029.97;;;4.32;56.79
85406;BME280;75817;42.662;23.270;2024-02-15T08:53:34;95012.56;;;4.02;56.44
85406;BME280;75817;42.662;23.270;2024-02-15T08:55:59;95023.06;;;3.77;56.74
85406;BME280;75817;42.662;23.270;2024-02-15T08:58:25;94959.44;;;3.65;56.42
85406;BME280;75817;42.662;23.270;2024-02-15T09:00:51;95019.88;;;4.17;56.60
85406;BME280;75817;42.662;23.270;2024-02-15T09:03:19;94997.09;;;4.16;56.25
85406;BME280;75817;42.662;23.270;2024-02-15T09:05:44;95020.06;;;4.28;56.45
85406;BME280;75817;42.662;23.270;2024-02-15T09:08:10;95022.75;;;3.73;56.81
85406;BME280;75817;42.662;23.270;2024-02-15T09:10:35;95010.41;;;4.01;56.58
85406;BME280;75817;42.662;23.270;2024-02-15T09:13:04;95019.34;;;3.92;56.73
85406;BME280;75817;42.662;23.270;2024-02-15T09:15:31;94978.25;;;3.59;56.34
85406;BME280;75817;42.662;23.270;2024-02-15T09:17:56;94946.22;;;3.64;56.56
85406;BME280;75817;42.662;23.270;2024-02-15T09:20:23;94950.75;;;3.69;56.13
85406;BME280;75817;42.662;23.270;2024-02-15T09:22:53;94968.91;;;3.72;56.55
85406;BME280;75817;42.662;23.270;2024-02-15T09:25:20;95004.91;;;4.01;56.80
85406;BME280;75817;42.662;23.270;2024-02-15T09:27:48;94953.66;;;3.71;57.43
85406;BME280;75817;42.662;23.270;2024-02-15T09:30:15;95002.16;;;4.10;55.72
85406;BME280;75817;42.662;23.270;2024-02-15T09:32:41;94989.59;;;4.26;56.79
85406;BME280;75817;42.662;23.270;2024-02-15T09:35:07;94979.72;;;4.23;56.98
85406;BME280;75817;42.662;23.270;2024-02-15T09:37:37;94939.56;;;4.03;57.07
85406;BME280;75817;42.662;23.270;2024-02-15T09:40:09;94940.78;;;4.19;56.81
85406;BME280;75817;42.662;23.270;2024-02-15T09:42:36;94986.94;;;4.74;56.73
85406;BME280;75817;42.662;23.270;2024-02-15T09:45:05;94923.03;;;4.13;55.78
85406;BME280;75817;42.662;23.270;2024-02-15T09:47:37;94990.09;;;4.61;55.98
85406;BME280;75817;42.662;23.270;2024-02-15T09:50:06;94978.03;;;4.57;56.35
85406;BME280;75817;42.662;23.270;2024-02-15T09:52:32;94988.69;;;4.70;56.26
85406;BME280;75817;42.662;23.270;2024-02-15T09:55:02;94970.91;;;4.54;55.71
85406;BME280;75817;42.662;23.270;2024-02-15T09:57:29;94928.88;;;4.26;56.00
85406;BME280;75817;42.662;23.270;2024-02-15T09:59:57;94971.09;;;4.85;55.75
85406;BME280;75817;42.662;23.270;2024-02-15T10:02:22;94937.50;;;4.59;55.63
85406;BME280;75817;42.662;23.270;2024-02-15T10:04:49;94916.88;;;4.60;55.24
85406;BME280;75817;42.662;23.270;2024-02-15T10:07:15;94963.81;;;4.70;55.35
85406;BME280;75817;42.662;23.270;2024-02-15T10:09:43;94975.03;;;4.82;55.39
85406;BME280;75817;42.662;23.270;2024-02-15T10:12:08;94913.25;;;4.67;55.23
85406;BME280;75817;42.662;23.270;2024-02-15T10:14:34;94894.06;;;4.60;54.78
85406;BME280;75817;42.662;23.270;2024-02-15T10:17:06;94910.91;;;4.83;55.06
85406;BME280;75817;42.662;23.270;2024-02-15T10:19:36;94909.19;;;4.78;55.04
85406;BME280;75817;42.662;23.270;2024-02-15T10:22:07;94886.78;;;4.84;55.10
85406;BME280;75817;42.662;23.270;2024-02-15T10:24:32;94895.97;;;4.86;54.28
85406;BME280;75817;42.662;23.270;2024-02-15T10:27:02;94891.88;;;4.68;55.08
85406;BME280;75817;42.662;23.270;2024-02-15T10:29:29;94924.56;;;5.00;54.50
85406;BME280;75817;42.662;23.270;2024-02-15T10:31:56;94889.44;;;4.62;55.36
85406;BME280;75817;42.662;23.270;2024-02-15T10:34:24;94943.91;;;5.10;56.09
85406;BME280;75817;42.662;23.270;2024-02-15T10:36:50;94891.44;;;4.71;55.24
85406;BME280;75817;42.662;23.270;2024-02-15T10:39:17;94935.75;;;5.21;55.36
85406;BME280;75817;42.662;23.270;2024-02-15T10:41:48;94931.94;;;5.36;54.82
85406;BME280;75817;42.662;23.270;2024-02-15T10:44:18;94886.00;;;5.21;54.95
85406;BME280;75817;42.662;23.270;2024-02-15T10:46:45;94926.28;;;5.34;54.94
85406;BME280;75817;42.662;23.270;2024-02-15T10:49:12;94933.84;;;5.34;55.00
85406;BME280;75817;42.662;23.270;2024-02-15T10:51:40;94921.19;;;5.40;55.14
85406;BME280;75817;42.662;23.270;2024-02-15T10:54:12;94931.91;;;5.46;54.79
85406;BME280;75817;42.662;23.270;2024-02-15T10:56:43;94926.03;;;5.70;54.61
85406;BME280;75817;42.662;23.270;2024-02-15T10:59:19;94913.78;;;5.73;54.51
85406;BME280;75817;42.662;23.270;2024-02-15T11:01:54;94863.44;;;5.75;53.21
85406;BME280;75817;42.662;23.270;2024-02-15T11:04:25;94858.00;;;5.56;53.31
85406;BME280;75817;42.662;23.270;2024-02-15T11:06:58;94917.78;;;6.01;53.24
85406;BME280;75817;42.662;23.270;2024-02-15T11:09:25;94909.66;;;6.25;52.24
85406;BME280;75817;42.662;23.270;2024-02-15T11:11:54;94921.63;;;6.17;52.66
85406;BME280;75817;42.662;23.270;2024-02-15T11:14:30;94920.06;;;6.14;52.56
85406;BME280;75817;42.662;23.270;2024-02-15T11:17:00;94905.78;;;5.87;52.98
85406;BME280;75817;42.662;23.270;2024-02-15T11:22:01;94895.28;;;6.16;52.71
85406;BME280;75817;42.662;23.270;2024-02-15T11:24:32;94855.41;;;5.79;52.16
85406;BME280;75817;42.662;23.270;2024-02-15T11:27:02;94889.44;;;5.91;51.30
85406;BME280;75817;42.662;23.270;2024-02-15T11:32:37;94904.75;;;6.13;50.93
85406;BME280;75817;42.662;23.270;2024-02-15T11:35:15;94850.13;;;5.93;51.29
85406;BME280;75817;42.662;23.270;2024-02-15T11:40:13;94799.75;;;5.33;51.15
85406;BME280;75817;42.662;23.270;2024-02-15T11:42:38;94829.63;;;5.77;51.55
85406;BME280;75817;42.662;23.270;2024-02-15T11:45:06;94885.84;;;6.31;50.67
85406;BME280;75817;42.662;23.270;2024-02-15T11:47:32;94853.84;;;6.07;51.19
85406;BME280;75817;42.662;23.270;2024-02-15T11:50:01;94893.69;;;6.13;50.97
85406;BME280;75817;42.662;23.270;2024-02-15T11:52:28;94862.13;;;6.07;51.10
85406;BME280;75817;42.662;23.270;2024-02-15T11:54:53;94815.59;;;5.94;50.78
85406;BME280;75817;42.662;23.270;2024-02-15T11:57:18;94848.09;;;6.36;51.66
85406;BME280;75817;42.662;23.270;2024-02-15T12:00:01;94893.31;;;6.71;51.99
85406;BME280;75817;42.662;23.270;2024-02-15T12:03:03;94845.53;;;6.49;51.13
85406;BME280;75817;42.662;23.270;2024-02-15T12:05:49;94838.00;;;6.40;54.07
85406;BME280;75817;42.662;23.270;2024-02-15T12:08:33;94824.28;;;6.42;50.31
85406;BME280;75817;42.662;23.270;2024-02-15T12:11:17;94824.75;;;6.39;49.87
85406;BME280;75817;42.662;23.270;2024-02-15T12:14:01;94879.53;;;6.61;49.99
85406;BME280;75817;42.662;23.270;2024-02-15T12:16:45;94877.97;;;6.91;49.32
85406;BME280;75817;42.662;23.270;2024-02-15T12:19:28;94853.72;;;6.80;49.36
85406;BME280;75817;42.662;23.270;2024-02-15T12:21:54;94871.34;;;6.85;49.41
85406;BME280;75817;42.662;23.270;2024-02-15T12:24:22;94817.22;;;6.51;50.12
85406;BME280;75817;42.662;23.270;2024-02-15T12:26:52;94874.31;;;7.10;49.97
85406;BME280;75817;42.662;23.270;2024-02-15T12:29:24;94863.66;;;6.95;49.54
85406;BME280;75817;42.662;23.270;2024-02-15T12:31:50;94817.78;;;6.71;49.26
85406;BME280;75817;42.662;23.270;2024-02-15T12:34:20;94872.00;;;7.06;49.75
85406;BME280;75817;42.662;23.270;2024-02-15T12:36:46;94855.78;;;7.24;48.51
85406;BME280;75817;42.662;23.270;2024-02-15T12:39:14;94854.03;;;6.96;49.42
85406;BME280;75817;42.662;23.270;2024-02-15T12:41:49;94861.44;;;7.14;49.44
85406;BME280;75817;42.662;23.270;2024-02-15T12:44:17;94810.00;;;6.46;50.52
85406;BME280;75817;42.662;23.270;2024-02-15T12:46:46;94754.47;;;6.11;50.20
85406;BME280;75817;42.662;23.270;2024-02-15T12:51:52;94802.59;;;6.60;49.84
85406;BME280;75817;42.662;23.270;2024-02-15T12:54:22;94797.69;;;7.14;49.19
85406;BME280;75817;42.662;23.270;2024-02-15T12:56:47;94844.66;;;7.12;49.41
85406;BME280;75817;42.662;23.270;2024-02-15T12:59:18;94846.25;;;7.15;50.28
85406;BME280;75817;42.662;23.270;2024-02-15T13:01:45;94844.91;;;7.16;49.38
85406;BME280;75817;42.662;23.270;2024-02-15T13:04:23;94842.81;;;6.94;49.76
85406;BME280;75817;42.662;23.270;2024-02-15T13:06:48;94856.91;;;6.98;50.19
85406;BME280;75817;42.662;23.270;2024-02-15T13:09:14;94855.63;;;7.10;49.71
85406;BME280;75817;42.662;23.270;2024-02-15T13:11:40;94844.41;;;7.08;50.49
85406;BME280;75817;42.662;23.270;2024-02-15T13:14:05;94850.75;;;7.55;48.59